Portlandville, New York
Current Conditions -  °F | °C
As of 6:15 PM on Wednesday 17 Dec 2014 (Local Time) from KNY0 Reporting Station
Overcast Overcast  
Wind Chill: 22°   Ceiling: 900
Heat Index: 32°   Visibility: 7mi
Dew Point: 30°   Wind: 14mph
Humidity: 93%   Direction: 270°W
Pressure: 29.84"   Gusts: 20mph
Location:  42.53°N, 74.97°W
Report Text: KNY0 172315Z AUTO 27012G17KT 240V300 7SM OVC009 00/M01 A2984 RMK AO2 T00001010
Loading
Personal Weather Stations






























Interactive Weather Map New forecast layout! Learn more

10-Day Weather Forecast

Advertisements
Track Severe Weather on mobile